CYGH

Details ICAO CYGH (YGH)
Name FORT GOOD HOPE
Region Canada
Timezone America/Yellowknife (UTC-6.0)
Plans Departing 2
Arriving 4
Stats Elevation 268 ft / 82 m (AMSL)
Location 66.240836° -128.650835°
Runways 1
Magnetic Variation 21.152° E
Sunrise 2018-05-24 10:15:01 UTC / 2018-05-24 04:15:01 Local
Sunset 2018-05-25 06:50:49 UTC / 2018-05-25 00:50:49 Local
Advertisement - Login to hide

Runways

ID Width Length Bearing (true) Bearing (mag) Surface Threshold Offset Overrun Length
06 98 ft / 30 m 3,024 ft / 922 m 89.99° 68.84° Gravel 0 ft / 0 m 0 ft / 0 m
24 98 ft / 30 m 3,024 ft / 922 m 270.01° 248.86° Gravel 0 ft / 0 m 0 ft / 0 m

Map

Weather


0- 5 10 15 20 25 30 35+ Temperature / ° C

Clouds and Precipitation
Forecast for 2018-05-24 18:00 UTC. Updated 4 hours ago

Ground ~20,000 ft ~40,000 ft Winds

METAR

CYGH 242100Z 08009KT 20SM FEW057 FEW083 SCT093 BKN100 11/04 A2961 RMK SC1AC1AC2AC4 SC TR SLP032

TAF

TAF CYGH 241738Z 2418/2423 06010KT P6SM SCT030 OVC080 TEMPO 2418/2423 5SM -SHRA BR BKN030 OVC050 BECMG 2418/2420 10012G22KT RMK NXT FCST WILL BE ISSUED AT 251415Z

Frequencies

Unicom 122.10 MHz MANDATORY FREQ
Warning: Do not use this data for real-world aviation or navigation. No guarantee of current accuracy is given.